Latest Weather Observations for Lord Howe Island Windy Point

IDN60801

Issued at 2:35 am EST Wednesday 30 July 2014 (issued every 30 minutes, with the page automatically refreshed every 10 minutes)

About weather observations | Map of weather stations | Latest weather observations for NSW | Other Formats
Station Details ID: 200715 Name: LORD HOWE ISLAND WINDY POINT Lat: -31.54 Lon: 159.07 Height: 4.0 m
Data from the previous 72 hours. | See also: Recent months for locations in New South Wales
Date/Time
EST
Temp
°C
App
Temp
°C
Dew
Point
Rel
Hum
%
Delta-T
°C
Wind Press
QNH
hPa
Press
MSL
hPa
Rain
since 9 am
mm
Dir
 
Spd
km/h
Gust
km/h
Spd
kts
Gust
kts
30/02:30am - - - - - W 22 26 12 14 - - -
30/02:00am - - - - - W 26 28 14 15 - - -
30/01:30am - - - - - WNW 28 30 15 16 - - -
30/01:00am - - - - - NNW 22 30 12 16 - - -
30/12:30am - - - - - NW 20 30 11 16 - - -
30/12:00am - - - - - NW 22 33 12 18 - - -
 
Date/Time
EST
Temp
°C
App
Temp
°C
Dew
Point
Rel
Hum
%
Delta-T
°C
Wind Press
QNH
hPa
Press
MSL
hPa
Rain
since 9 am
mm
Dir
 
Spd
km/h
Gust
km/h
Spd
kts
Gust
kts
29/11:30pm - - - - - NNW 17 30 9 16 - - -
29/11:00pm - - - - - NNW 15 20 8 11 - - -
29/10:30pm - - - - - NNW 17 24 9 13 - - -
29/10:00pm - - - - - NNW 13 20 7 11 - - -
29/09:30pm - - - - - NNW 13 24 7 13 - - -
29/09:00pm - - - - - NNW 15 22 8 12 - - -
29/08:30pm - - - - - NW 19 26 10 14 - - -
29/08:00pm - - - - - NW 19 24 10 13 - - -
29/07:30pm - - - - - CALM 0 0 0 0 - - -
29/07:00pm - - - - - CALM 0 0 0 0 - - -
29/06:30pm - - - - - NNW 6 9 3 5 - - -
29/06:00pm - - - - - NNW 7 9 4 5 - - -
29/05:30pm - - - - - NNW 7 11 4 6 - - -
29/05:00pm - - - - - NNW 9 13 5 7 - - -
29/04:30pm - - - - - WNW 19 24 10 13 - - -
29/04:00pm - - - - - WNW 20 28 11 15 - - -
29/03:30pm - - - - - W 22 26 12 14 - - -
29/03:00pm - - - - - W 26 30 14 16 - - -
29/02:30pm - - - - - W 24 28 13 15 - - -
29/02:00pm - - - - - W 19 24 10 13 - - -
29/01:30pm - - - - - W 19 24 10 13 - - -
29/01:00pm - - - - - W 26 28 14 15 - - -
29/12:30pm - - - - - NW 22 26 12 14 - - -
29/12:00pm - - - - - NW 22 32 12 17 - - -
29/11:30am - - - - - NW 24 32 13 17 - - -
29/11:00am - - - - - NW 22 30 12 16 - - -
29/10:30am - - - - - NW 20 30 11 16 - - -
29/10:00am - - - - - WNW 24 30 13 16 - - -
29/09:30am - - - - - WNW 22 28 12 15 - - -
29/09:00am - - - - - NW 20 26 11 14 - - -
29/08:30am - - - - - NW 17 22 9 12 - - -
29/08:00am - - - - - NW 15 24 8 13 - - -
29/07:30am - - - - - NW 13 19 7 10 - - -
29/07:00am - - - - - NW 11 15 6 8 - - -
29/06:30am - - - - - CALM 0 0 0 0 - - -
29/06:00am - - - - - CALM 0 0 0 0 - - -
29/05:30am - - - - - CALM 0 6 0 3 - - -
29/05:00am - - - - - S 7 15 4 8 - - -
29/04:30am - - - - - SW 22 24 12 13 - - -
29/04:29am - - - - - SW 22 24 12 13 - - -
29/04:00am - - - - - W 39 44 21 24 - - -
29/03:40am - - - - - W 32 35 17 19 - - -
29/03:30am - - - - - NW 11 15 6 8 - - -
29/03:00am - - - - - CALM 0 0 0 0 - - -
29/02:30am - - - - - CALM 0 2 0 1 - - -
29/02:00am - - - - - CALM 0 0 0 0 - - -
29/01:30am - - - - - N 4 7 2 4 - - -
29/01:00am - - - - - N 4 6 2 3 - - -
29/12:30am - - - - - NNW 6 7 3 4 - - -
29/12:00am - - - - - NNW 7 9 4 5 - - -
 
Date/Time
EST
Temp
°C
App
Temp
°C
Dew
Point
Rel
Hum
%
Delta-T
°C
Wind Press
QNH
hPa
Press
MSL
hPa
Rain
since 9 am
mm
Dir
 
Spd
km/h
Gust
km/h
Spd
kts
Gust
kts
28/11:30pm - - - - - NNW 6 7 3 4 - - -
28/11:00pm - - - - - NW 6 9 3 5 - - -
28/10:30pm - - - - - CALM 0 0 0 0 - - -
28/10:00pm - - - - - NW 2 7 1 4 - - -
28/09:30pm - - - - - NNW 7 11 4 6 - - -
28/09:00pm - - - - - NW 7 11 4 6 - - -
28/08:30pm - - - - - N 6 7 3 4 - - -
28/08:00pm - - - - - NW 7 15 4 8 - - -
28/07:30pm - - - - - NW 9 11 5 6 - - -
28/07:00pm - - - - - W 9 13 5 7 - - -
28/06:30pm - - - - - W 11 15 6 8 - - -
28/06:00pm - - - - - NW 7 11 4 6 - - -
28/05:30pm - - - - - W 15 17 8 9 - - -
28/05:00pm - - - - - W 17 20 9 11 - - -
28/04:30pm - - - - - W 19 22 10 12 - - -
28/04:00pm - - - - - W 17 20 9 11 - - -
28/03:30pm - - - - - W 15 17 8 9 - - -
28/03:00pm - - - - - W 9 11 5 6 - - -
28/02:30pm - - - - - W 9 15 5 8 - - -
28/02:00pm - - - - - W 13 17 7 9 - - -
28/01:30pm - - - - - W 13 15 7 8 - - -
28/01:00pm - - - - - W 13 15 7 8 - - -
28/12:30pm - - - - - WSW 13 17 7 9 - - -
28/12:00pm - - - - - W 13 19 7 10 - - -
28/11:30am - - - - - WSW 15 17 8 9 - - -
28/11:00am - - - - - WSW 13 15 7 8 - - -
28/10:30am - - - - - WSW 13 17 7 9 - - -
28/10:00am - - - - - WSW 9 13 5 7 - - -
28/09:30am - - - - - WSW 9 13 5 7 - - -
28/09:00am - - - - - SW 11 13 6 7 - - -
28/08:30am - - - - - SSW 2 9 1 5 - - -
28/08:00am - - - - - CALM 0 0 0 0 - - -
28/07:30am - - - - - CALM 0 0 0 0 - - -
28/07:00am - - - - - ENE 6 7 3 4 - - -
28/06:30am - - - - - CALM 0 0 0 0 - - -
28/06:00am - - - - - E 6 6 3 3 - - -
28/05:30am - - - - - E 6 6 3 3 - - -
28/05:00am - - - - - SSE 2 7 1 4 - - -
28/04:30am - - - - - ESE 2 6 1 3 - - -
28/04:00am - - - - - CALM 0 4 0 2 - - -
28/03:30am - - - - - CALM 0 0 0 0 - - -
28/03:00am - - - - - CALM 0 4 0 2 - - -
28/02:30am - - - - - E 2 6 1 3 - - -
28/02:00am - - - - - ENE 4 7 2 4 - - -
28/01:30am - - - - - SSE 7 9 4 5 - - -
28/01:00am - - - - - S 11 19 6 10 - - -
28/12:30am - - - - - SW 22 28 12 15 - - -
28/12:00am - - - - - SW 24 28 13 15 - - -
 
Date/Time
EST
Temp
°C
App
Temp
°C
Dew
Point
Rel
Hum
%
Delta-T
°C
Wind Press
QNH
hPa
Press
MSL
hPa
Rain
since 9 am
mm
Dir
 
Spd
km/h
Gust
km/h
Spd
kts
Gust
kts
27/11:30pm - - - - - SW 28 32 15 17 - - -
27/11:00pm - - - - - WSW 30 33 16 18 - - -
27/10:30pm - - - - - SW 28 32 15 17 - - -
27/10:00pm - - - - - SW 26 32 14 17 - - -
27/09:30pm - - - - - SSW 30 35 16 19 - - -
27/09:00pm - - - - - SSW 30 35 16 19 - - -
27/08:30pm - - - - - SW 32 35 17 19 - - -
27/08:00pm - - - - - SW 37 43 20 23 - - -
27/07:30pm - - - - - SW 37 44 20 24 - - -
27/07:00pm - - - - - SW 35 43 19 23 - - -
27/06:30pm - - - - - SW 37 43 20 23 - - -
27/06:00pm - - - - - SW 39 44 21 24 - - -
27/05:30pm - - - - - SW 41 46 22 25 - - -
27/05:00pm - - - - - SW 37 44 20 24 - - -
27/04:30pm - - - - - SW 39 46 21 25 - - -
27/04:00pm - - - - - SW 39 46 21 25 - - -
27/03:30pm - - - - - SW 39 48 21 26 - - -
27/03:00pm - - - - - SW 39 46 21 25 - - -
27/02:30pm - - - - - SW 39 46 21 25 - - -
27/02:00pm - - - - - WSW 41 48 22 26 - - -
27/01:30pm - - - - - WSW 33 43 18 23 - - -
27/01:00pm - - - - - WSW 32 35 17 19 - - -
27/12:30pm - - - - - W 26 35 14 19 - - -
27/12:00pm - - - - - W 24 28 13 15 - - -
27/11:30am - - - - - W 24 28 13 15 - - -
27/11:00am - - - - - WNW 17 20 9 11 - - -
27/10:30am - - - - - W 20 24 11 13 - - -
27/10:00am - - - - - W 20 22 11 12 - - -
27/09:30am - - - - - NW 15 20 8 11 - - -
27/09:00am - - - - - W 22 24 12 13 - - -
27/08:30am - - - - - NW 13 19 7 10 - - -
27/08:00am - - - - - NNW 11 17 6 9 - - -
27/07:30am - - - - - NNW 9 17 5 9 - - -
27/07:00am - - - - - N 9 15 5 8 - - -
27/06:30am - - - - - NW 11 15 6 8 - - -
27/06:00am - - - - - NW 7 19 4 10 - - -
27/05:30am - - - - - NNW 11 20 6 11 - - -
27/05:00am - - - - - ENE 9 15 5 8 - - -
27/04:30am - - - - - E 4 7 2 4 - - -
27/04:00am - - - - - NNW 7 9 4 5 - - -
27/03:30am - - - - - NW 9 15 5 8 - - -
27/03:00am - - - - - WSW 15 20 8 11 - - -

Other Formats:

Comma delimited format used in spreadsheet applications
http://www.bom.gov.au/fwo/IDN60801/IDN60801.95995.axf

JavaScript Object Notation format (JSON) in row-major order
http://www.bom.gov.au/fwo/IDN60801/IDN60801.95995.json